Main page
METAR-TAF:

METAR-TAF

Airports :

Najran Domestic Airport

Najran, Saudi Arabia

latitude: 17-37N, longitude: 044-25E, elevation: 1212 m

Current weather observation

The report was made 1 hour and 16 minutes ago, at 17:00 UTC
Wind 6 kt from the East
Temperature 34°C
Humidity 11%
Pressure 1013 hPa
Visibility 10 km or more
no clouds below 1500 m and no cumulonimbus

METAR: OENG 251700Z 09006KT CAVOK 34/M01 Q1013 NOSIG

Time: 21:16 (18:16 UTC)

Forecast

The report was made 7 hours and 16 minutes ago, at 11:00 UTC
Forecast valid from 25 at 12 UTC to 26 at 18 UTC
Wind 10 kt from the East
Visibility: 7000 m
Few clouds at a height of 3000 ft
Becoming
from 25 at 20 UTC to 25 at 22 UTC
Wind 8 kt from the West
Becoming
from 26 at 06 UTC to 26 at 08 UTC
Wind 10 kt from the East

TAF: OENG 251100Z 2512/2618 08010KT 7000 FEW030 BECMG 2520/2522 27008KT BECMG 2606/2608 09010KT

Weather observations and forecasts of more than 4000 airports (METAR and TAF reports).

The available stations are represented by yellow and red dots on the map.

Hover mouse over dot to see the name of the station.

Then click to see weather observations and forecasts.

To change the map : click on the green buttons with a black cross to zoom in, on the green button with a dash to zoom out, or on the green arrows for adjacent maps.


METAR-TAF: